Time;durP1;ratioP1;P1;durP2;ratioP2;P2;SDS_P1;SDS_P2;PMS_P1;PMS_P2;Temp;Humidity;BMP_temperature;BMP_pressure;BME280_temperature;BME280_humidity;BME280_pressure;Samples;Min_cycle;Max_cycle;Signal;HPM_P1;HPM_P2
2022/06/28 00:02:12;;;;;;;1.00;1.00;;;19.60;66.30;;;;;;934696;150;27472;-72
2022/06/28 00:04:39;;;;;;;0.88;0.88;;;19.50;66.20;;;;;;951153;147;27762;-72
2022/06/28 00:07:05;;;;;;;1.72;1.00;;;19.40;66.30;;;;;;927171;150;27652;-71
2022/06/28 00:09:32;;;;;;;0.98;0.98;;;19.40;66.50;;;;;;943487;149;27402;-71
2022/06/28 00:11:58;;;;;;;0.98;0.90;;;19.30;66.60;;;;;;942407;149;27349;-72
2022/06/28 00:17:10;;;;;;;0.70;0.70;;;19.20;66.90;;;;;;941205;152;27346;-72
2022/06/28 00:19:37;;;;;;;1.35;0.95;;;19.10;66.20;;;;;;941340;152;27314;-72
2022/06/28 00:22:03;;;;;;;1.17;1.00;;;19.00;67.20;;;;;;940331;152;27449;-73
2022/06/28 00:24:29;;;;;;;1.57;0.90;;;18.90;67.50;;;;;;941392;152;27346;-72
2022/06/28 00:26:56;;;;;;;0.80;0.80;;;18.80;67.60;;;;;;955663;148;27361;-72
2022/06/28 00:29:23;;;;;;;1.05;1.05;;;18.70;67.90;;;;;;955898;149;27261;-72
2022/06/28 00:31:49;;;;;;;1.12;1.07;;;18.60;68.10;;;;;;955615;149;27400;-72
2022/06/28 00:34:16;;;;;;;1.50;1.05;;;18.60;68.70;;;;;;955619;149;27352;-72
2022/06/28 00:36:42;;;;;;;1.10;1.10;;;18.50;69.10;;;;;;955637;149;27657;-72
2022/06/28 00:39:09;;;;;;;1.10;1.02;;;18.40;69.50;;;;;;955469;150;27297;-72
2022/06/28 00:41:36;;;;;;;1.10;1.10;;;18.40;69.80;;;;;;928590;151;27369;-71
2022/06/28 00:44:02;;;;;;;1.00;1.00;;;18.30;69.80;;;;;;955452;148;27356;-72
2022/06/28 00:46:29;;;;;;;1.10;1.10;;;18.30;70.10;;;;;;937938;150;27387;-73
2022/06/28 00:48:55;;;;;;;1.40;1.30;;;18.20;70.30;;;;;;955646;148;27424;-72
2022/06/28 00:51:22;;;;;;;1.17;1.13;;;18.20;70.80;;;;;;955781;149;27398;-72
2022/06/28 00:53:49;;;;;;;1.10;1.10;;;18.20;71.00;;;;;;928301;154;27399;-72
2022/06/28 00:56:15;;;;;;;1.05;1.05;;;18.10;71.20;;;;;;941465;151;27358;-72
2022/06/28 00:58:42;;;;;;;2.47;1.33;;;18.00;71.40;;;;;;941297;152;27887;-72
2022/06/28 01:01:08;;;;;;;2.87;1.40;;;18.00;71.70;;;;;;941219;152;27319;-72
2022/06/28 01:03:35;;;;;;;1.20;1.10;;;17.90;71.90;;;;;;940670;152;27419;-72
2022/06/28 01:06:01;;;;;;;1.50;1.23;;;17.90;72.00;;;;;;940479;149;27318;-72
2022/06/28 01:08:28;;;;;;;2.60;1.40;;;17.90;72.30;;;;;;940043;149;27465;-72
2022/06/28 01:10:55;;;;;;;1.45;1.35;;;17.80;72.50;;;;;;955698;150;27671;-72
2022/06/28 01:13:21;;;;;;;1.50;1.40;;;17.80;72.80;;;;;;951971;146;27454;-72
2022/06/28 01:15:48;;;;;;;2.47;1.90;;;17.80;72.90;;;;;;951603;147;27428;-72
2022/06/28 01:18:14;;;;;;;1.90;1.80;;;17.70;73.10;;;;;;950741;147;27329;-72
2022/06/28 01:20:41;;;;;;;2.03;1.60;;;17.70;73.30;;;;;;951572;147;27926;-73
2022/06/28 01:23:08;;;;;;;1.50;1.40;;;17.70;73.50;;;;;;950994;147;27319;-72
2022/06/28 01:25:34;;;;;;;1.40;1.30;;;17.60;73.60;;;;;;951358;147;27300;-72
2022/06/28 01:28:01;;;;;;;1.55;1.45;;;17.50;73.80;;;;;;951611;147;27411;-72
2022/06/28 01:30:27;;;;;;;1.50;1.40;;;17.50;74.00;;;;;;951277;147;27436;-72
2022/06/28 01:32:54;;;;;;;2.72;1.52;;;17.40;74.10;;;;;;950540;147;27350;-73
2022/06/28 01:35:21;;;;;;;1.70;1.35;;;17.40;74.40;;;;;;950896;147;27269;-72
2022/06/28 01:37:49;;;;;;;1.40;1.30;;;17.30;74.60;;;;;;950407;147;27290;-72
2022/06/28 01:40:14;;;;;;;1.80;1.40;;;17.30;75.00;;;;;;951642;147;27313;-72
2022/06/28 01:42:40;;;;;;;1.70;1.60;;;17.20;75.00;;;;;;952370;147;27321;-72
2022/06/28 01:45:07;;;;;;;1.50;1.40;;;17.20;74.60;;;;;;951370;147;27241;-72
2022/06/28 01:47:33;;;;;;;1.23;1.13;;;17.10;75.40;;;;;;951696;147;27778;-72
2022/06/28 01:50:00;;;;;;;1.30;1.20;;;17.10;75.60;;;;;;951110;147;27348;-71
2022/06/28 01:52:27;;;;;;;1.57;1.33;;;17.00;75.80;;;;;;952332;147;27396;-73
2022/06/28 01:54:53;;;;;;;1.50;1.40;;;16.90;76.00;;;;;;950853;147;27320;-72
2022/06/28 01:57:20;;;;;;;1.50;1.40;;;16.90;76.10;;;;;;952171;147;27316;-72
2022/06/28 01:59:46;;;;;;;1.30;1.20;;;16.80;76.30;;;;;;951425;147;27324;-72
2022/06/28 02:02:13;;;;;;;1.30;1.30;;;16.80;76.70;;;;;;951430;147;27313;-72
2022/06/28 02:04:40;;;;;;;1.30;1.30;;;16.70;77.00;;;;;;951970;147;27339;-72
2022/06/28 02:07:06;;;;;;;2.80;1.73;;;16.60;77.20;;;;;;950718;147;27356;-72
2022/06/28 02:09:33;;;;;;;2.20;1.50;;;16.60;77.50;;;;;;951342;147;27298;-72
2022/06/28 02:11:59;;;;;;;1.50;1.40;;;16.50;78.00;;;;;;951198;147;27337;-72
2022/06/28 02:14:26;;;;;;;1.57;1.37;;;16.50;78.30;;;;;;966617;145;27778;-72
2022/06/28 02:16:53;;;;;;;1.90;1.50;;;16.50;78.50;;;;;;968432;145;27302;-72
2022/06/28 02:19:19;;;;;;;1.80;1.60;;;16.40;78.60;;;;;;969127;145;27383;-72
2022/06/28 02:21:46;;;;;;;2.37;1.63;;;16.40;78.90;;;;;;969164;145;27313;-72
2022/06/28 02:24:13;;;;;;;1.90;1.60;;;16.30;78.90;;;;;;968593;145;27421;-71
2022/06/28 02:26:39;;;;;;;1.90;1.70;;;16.20;79.10;;;;;;969428;145;27349;-72
2022/06/28 02:29:06;;;;;;;2.83;2.07;;;16.20;79.40;;;;;;969013;145;27330;-72
2022/06/28 02:31:32;;;;;;;2.90;2.37;;;16.10;79.60;;;;;;970684;145;27412;-71
2022/06/28 02:33:59;;;;;;;3.37;2.60;;;16.10;80.00;;;;;;948765;148;27416;-72
2022/06/28 02:41:46;;;;;;;2.50;2.30;;;15.90;80.30;;;;;;949301;148;27446;-73
2022/06/28 02:44:12;;;;;;;3.23;2.50;;;15.80;80.70;;;;;;968399;145;27386;-71
2022/06/28 02:46:39;;;;;;;2.90;2.70;;;15.80;81.30;;;;;;970583;145;27326;-72
2022/06/28 02:49:06;;;;;;;4.20;3.27;;;15.70;81.80;;;;;;952227;148;27387;-72
2022/06/28 02:51:32;;;;;;;3.50;2.67;;;15.70;82.10;;;;;;968462;145;27474;-72
2022/06/28 02:53:59;;;;;;;5.23;2.87;;;15.60;82.30;;;;;;971269;145;27330;-68
2022/06/28 02:56:25;;;;;;;3.03;2.50;;;15.60;82.90;;;;;;969463;145;27830;-69
2022/06/28 02:58:52;;;;;;;1.97;1.87;;;15.60;83.00;;;;;;970978;145;27382;-71
2022/06/28 03:01:19;;;;;;;2.63;2.07;;;15.50;83.00;;;;;;968845;145;27330;-72
2022/06/28 03:03:45;;;;;;;2.00;1.77;;;15.50;83.10;;;;;;948569;148;27367;-68
2022/06/28 03:06:12;;;;;;;14.20;2.70;;;15.40;83.20;;;;;;948804;148;27348;-68
2022/06/28 03:08:38;;;;;;;2.13;1.77;;;15.40;83.30;;;;;;954866;148;27313;-69
2022/06/28 03:11:05;;;;;;;5.53;2.30;;;15.30;83.50;;;;;;969114;145;27267;-69
2022/06/28 03:13:31;;;;;;;2.53;1.87;;;15.30;83.80;;;;;;942728;148;27353;-69
2022/06/28 03:15:58;;;;;;;1.93;1.83;;;15.20;84.20;;;;;;942643;149;27334;-69
2022/06/28 03:18:25;;;;;;;2.93;2.40;;;15.20;84.60;;;;;;943358;149;27320;-69
2022/06/28 03:20:51;;;;;;;3.27;2.20;;;15.10;85.00;;;;;;943328;149;27395;-71
2022/06/28 03:23:18;;;;;;;3.47;2.13;;;15.10;85.60;;;;;;942885;149;27364;-69
2022/06/28 03:25:44;;;;;;;2.30;2.10;;;15.00;85.90;;;;;;935105;149;28821;-68
2022/06/28 03:28:11;;;;;;;2.33;2.17;;;15.00;86.30;;;;;;937663;150;27274;-69
2022/06/28 03:30:38;;;;;;;3.30;2.37;;;15.00;86.80;;;;;;951378;147;27328;-69
2022/06/28 03:33:04;;;;;;;2.63;2.43;;;14.90;87.40;;;;;;951642;147;27328;-70
2022/06/28 03:35:31;;;;;;;2.53;2.30;;;14.90;87.70;;;;;;943118;148;27328;-68
2022/06/28 03:37:57;;;;;;;2.37;2.17;;;14.90;88.20;;;;;;951243;147;27344;-68
2022/06/28 03:40:24;;;;;;;2.60;2.20;;;14.90;88.60;;;;;;927508;150;27799;-69
2022/06/28 03:42:50;;;;;;;2.60;2.40;;;14.90;89.00;;;;;;943127;149;27438;-69
2022/06/28 03:45:17;;;;;;;3.07;2.33;;;14.90;89.50;;;;;;934017;150;27456;-68
2022/06/28 03:47:44;;;;;;;2.47;2.27;;;14.90;89.80;;;;;;953932;150;27410;-68
2022/06/28 03:50:10;;;;;;;2.23;2.10;;;14.90;90.10;;;;;;953594;150;27316;-69
2022/06/28 03:52:37;;;;;;;2.50;2.30;;;14.90;90.30;;;;;;953400;149;27443;-69
2022/06/28 03:55:06;;;;;;;2.50;2.00;;;14.90;90.40;;;;;;953988;150;27309;-71
2022/06/28 03:57:30;;;;;;;1.83;1.73;;;14.90;90.60;;;;;;953658;150;27417;-69
2022/06/28 03:59:57;;;;;;;2.10;2.00;;;14.90;90.70;;;;;;953556;150;28252;-69
2022/06/28 04:02:23;;;;;;;2.17;1.83;;;14.90;90.90;;;;;;953891;150;27285;-69
2022/06/28 04:04:50;;;;;;;3.40;2.07;;;15.00;91.10;;;;;;954048;149;27281;-69
2022/06/28 04:07:16;;;;;;;2.20;2.10;;;15.00;91.40;;;;;;954082;150;27316;-71
2022/06/28 04:09:43;;;;;;;2.10;2.00;;;15.00;91.60;;;;;;953552;150;27710;-69
2022/06/28 04:12:10;;;;;;;2.47;2.10;;;15.10;91.90;;;;;;953222;150;27281;-69
2022/06/28 04:14:36;;;;;;;2.60;2.40;;;15.10;92.00;;;;;;957101;149;27403;-69
2022/06/28 04:17:03;;;;;;;2.17;1.90;;;15.20;92.30;;;;;;960808;149;27347;-68
2022/06/28 04:19:29;;;;;;;2.43;2.20;;;15.20;92.50;;;;;;960413;149;27509;-68
2022/06/28 04:21:56;;;;;;;2.90;2.70;;;15.30;92.70;;;;;;960360;149;27389;-68
2022/06/28 04:24:22;;;;;;;4.30;3.20;;;15.30;92.90;;;;;;960498;149;27444;-70
2022/06/28 04:26:49;;;;;;;3.30;3.00;;;15.40;93.10;;;;;;959928;149;27355;-69
2022/06/28 04:29:16;;;;;;;5.90;3.40;;;15.50;93.40;;;;;;960581;148;27404;-70
2022/06/28 04:31:42;;;;;;;4.47;4.03;;;15.60;93.60;;;;;;959955;149;27363;-68
2022/06/28 04:34:09;;;;;;;4.13;3.70;;;15.70;93.90;;;;;;960138;146;27412;-71
2022/06/28 04:36:35;;;;;;;4.63;4.23;;;15.80;94.00;;;;;;960199;149;27349;-68
2022/06/28 04:39:02;;;;;;;4.50;3.90;;;15.90;94.10;;;;;;960612;149;27408;-69
2022/06/28 04:41:29;;;;;;;4.40;4.00;;;16.00;94.20;;;;;;960386;149;28721;-69
2022/06/28 04:43:56;;;;;;;4.40;3.87;;;16.10;94.30;;;;;;958956;149;27391;-68
2022/06/28 04:46:22;;;;;;;4.73;4.27;;;16.20;94.30;;;;;;959543;149;27412;-69
2022/06/28 04:48:48;;;;;;;4.97;4.58;;;16.40;94.60;;;;;;960375;146;27452;-69
2022/06/28 04:51:15;;;;;;;5.33;4.83;;;16.50;94.80;;;;;;960132;146;27366;-69
2022/06/28 04:53:42;;;;;;;5.90;5.40;;;16.70;95.00;;;;;;960645;149;27475;-69
2022/06/28 04:56:08;;;;;;;9.15;5.55;;;17.00;95.70;;;;;;960257;146;27414;-69
2022/06/28 04:58:35;;;;;;;5.12;4.40;;;17.30;96.80;;;;;;959487;149;27381;-69
2022/06/28 05:01:01;;;;;;;4.03;3.62;;;17.80;98.30;;;;;;960136;149;27360;-70
2022/06/28 05:03:28;;;;;;;3.33;3.05;;;18.40;99.30;;;;;;959465;149;27869;-71
2022/06/28 05:05:54;;;;;;;2.60;2.50;;;19.10;99.80;;;;;;960103;149;27849;-69
2022/06/28 05:08:21;;;;;;;2.62;2.42;;;19.90;99.90;;;;;;964490;146;27343;-68
2022/06/28 05:10:48;;;;;;;2.65;2.45;;;20.80;99.20;;;;;;946206;149;27367;-70
2022/06/28 05:13:14;;;;;;;4.05;2.60;;;21.70;97.80;;;;;;964046;146;27388;-70
2022/06/28 05:15:41;;;;;;;2.22;2.12;;;22.60;96.00;;;;;;964054;145;27352;-70
2022/06/28 05:18:07;;;;;;;2.55;2.35;;;23.60;94.20;;;;;;943125;149;27356;-73
2022/06/28 05:20:34;;;;;;;2.55;2.35;;;24.50;92.10;;;;;;964079;145;27318;-69
2022/06/28 05:23:01;;;;;;;2.75;2.55;;;25.40;89.60;;;;;;947403;148;27273;-70
2022/06/28 05:25:27;;;;;;;9.98;2.60;;;26.30;85.40;;;;;;963727;146;27304;-70
2022/06/28 05:27:54;;;;;;;3.15;2.40;;;27.20;81.00;;;;;;964479;146;27346;-69
2022/06/28 05:30:20;;;;;;;2.80;2.55;;;28.00;76.80;;;;;;944293;149;27457;-70
2022/06/28 05:32:47;;;;;;;2.42;2.22;;;28.70;73.60;;;;;;963701;148;27319;-71
2022/06/28 05:35:14;;;;;;;2.75;2.55;;;29.30;70.80;;;;;;962867;148;27292;-70
2022/06/28 05:37:40;;;;;;;2.75;2.55;;;30.00;68.20;;;;;;963617;148;27296;-71
2022/06/28 05:40:07;;;;;;;3.40;2.27;;;30.50;66.00;;;;;;963443;148;27304;-72
2022/06/28 05:42:34;;;;;;;2.40;2.30;;;31.00;64.70;;;;;;963268;149;27468;-71
2022/06/28 05:45:00;;;;;;;2.08;1.90;;;31.60;63.20;;;;;;946259;149;27360;-71
2022/06/28 05:47:27;;;;;;;2.65;2.22;;;32.20;62.90;;;;;;963482;146;27417;-71
2022/06/28 05:49:53;;;;;;;2.92;2.25;;;32.70;60.40;;;;;;943260;149;27271;-71
2022/06/28 05:52:20;;;;;;;1.95;1.80;;;33.30;59.00;;;;;;964300;146;27371;-71
2022/06/28 05:54:46;;;;;;;1.70;1.60;;;33.80;57.40;;;;;;964298;145;27288;-70
2022/06/28 05:57:13;;;;;;;2.95;1.72;;;34.20;55.90;;;;;;967000;145;27304;-70
2022/06/28 05:59:40;;;;;;;1.70;1.42;;;34.60;55.00;;;;;;964019;145;27272;-71
2022/06/28 06:02:06;;;;;;;1.85;1.60;;;35.00;54.10;;;;;;943818;149;27517;-74
2022/06/28 06:04:33;;;;;;;1.80;1.70;;;35.30;52.90;;;;;;964332;145;27332;-70
2022/06/28 06:07:00;;;;;;;1.92;1.72;;;35.50;51.60;;;;;;944780;149;27341;-70
2022/06/28 06:09:26;;;;;;;1.62;1.52;;;35.70;50.80;;;;;;964089;146;27390;-70
2022/06/28 06:11:53;;;;;;;1.92;1.60;;;35.80;50.00;;;;;;943770;149;27434;-71
2022/06/28 06:14:20;;;;;;;1.10;1.10;;;35.90;49.50;;;;;;964089;146;26152;-72
2022/06/28 06:16:47;;;;;;;1.62;1.40;;;36.00;49.20;;;;;;944145;149;26393;-70
2022/06/28 06:19:12;;;;;;;2.17;1.20;;;36.10;48.80;;;;;;963974;146;26254;-70
2022/06/28 06:21:39;;;;;;;1.50;1.40;;;36.20;48.60;;;;;;942680;149;27008;-72
2022/06/28 06:24:06;;;;;;;1.37;1.05;;;36.50;48.10;;;;;;963805;146;27328;-70
2022/06/28 06:26:33;;;;;;;1.22;1.10;;;36.70;47.90;;;;;;947061;149;26385;-68
2022/06/28 06:28:59;;;;;;;1.22;1.22;;;37.00;47.50;;;;;;963895;145;26246;-69
2022/06/28 06:31:25;;;;;;;1.35;1.15;;;37.30;47.10;;;;;;968765;148;26264;-69
2022/06/28 06:33:52;;;;;;;1.02;1.02;;;37.60;46.90;;;;;;964577;146;26244;-69
2022/06/28 06:36:19;;;;;;;1.35;1.02;;;38.00;46.10;;;;;;946406;149;26239;-71
2022/06/28 06:38:46;;;;;;;0.85;0.85;;;38.30;45.50;;;;;;964132;146;26312;-68
2022/06/28 06:41:12;;;;;;;1.25;1.15;;;38.60;44.80;;;;;;946984;149;26258;-70
2022/06/28 06:43:38;;;;;;;1.02;0.93;;;38.90;44.30;;;;;;950964;148;26220;-69
2022/06/28 06:46:05;;;;;;;1.12;1.05;;;39.20;43.70;;;;;;963876;146;26200;-69
2022/06/28 06:48:31;;;;;;;1.47;0.80;;;39.50;43.00;;;;;;945887;149;26225;-70
2022/06/28 06:50:58;;;;;;;1.35;0.90;;;39.80;42.60;;;;;;963870;146;26380;-69
2022/06/28 06:53:25;;;;;;;0.95;0.95;;;40.10;42.00;;;;;;967542;145;26281;-69
2022/06/28 06:55:51;;;;;;;2.08;0.90;;;40.40;41.30;;;;;;946547;149;26608;-69
2022/06/28 06:58:18;;;;;;;2.47;1.10;;;40.70;40.60;;;;;;963787;146;26220;-69
2022/06/28 07:00:44;;;;;;;1.10;1.00;;;40.90;39.40;;;;;;966789;145;26328;-69
2022/06/28 07:03:11;;;;;;;1.92;1.15;;;41.10;38.50;;;;;;964562;145;26247;-69
2022/06/28 07:05:38;;;;;;;1.42;1.02;;;41.10;38.10;;;;;;963625;145;26212;-69
2022/06/28 07:08:04;;;;;;;0.75;0.72;;;41.10;38.00;;;;;;944172;149;26256;-70
2022/06/28 07:10:31;;;;;;;1.37;0.82;;;41.10;37.80;;;;;;963986;146;26188;-70
2022/06/28 07:12:57;;;;;;;1.07;1.07;;;41.30;37.80;;;;;;967441;145;26227;-71
2022/06/28 07:15:24;;;;;;;1.20;0.60;;;41.50;37.40;;;;;;963999;145;26327;-69
2022/06/28 07:17:51;;;;;;;0.85;0.70;;;41.70;37.10;;;;;;943117;149;26277;-69
2022/06/28 07:20:17;;;;;;;2.45;0.65;;;42.00;36.60;;;;;;946565;149;26207;-69
2022/06/28 07:22:44;;;;;;;1.00;0.62;;;42.20;35.90;;;;;;963992;146;26289;-69
2022/06/28 07:25:10;;;;;;;1.17;0.80;;;42.40;35.40;;;;;;944610;149;26275;-70
2022/06/28 07:27:37;;;;;;;0.75;0.70;;;42.60;35.20;;;;;;964382;146;26263;-69
2022/06/28 07:30:03;;;;;;;0.60;0.60;;;42.80;34.80;;;;;;943895;149;26277;-70
2022/06/28 07:32:30;;;;;;;0.70;0.70;;;43.00;33.40;;;;;;964215;146;26175;-70
2022/06/28 07:34:57;;;;;;;0.90;0.50;;;43.10;33.90;;;;;;943674;149;26225;-70
2022/06/28 07:37:23;;;;;;;0.62;0.60;;;43.30;33.40;;;;;;947603;148;26203;-70
2022/06/28 07:39:50;;;;;;;0.78;0.40;;;43.50;33.60;;;;;;964714;146;26277;-72
2022/06/28 07:42:16;;;;;;;0.65;0.65;;;43.60;33.20;;;;;;967709;145;26188;-69
2022/06/28 07:44:43;;;;;;;1.37;0.62;;;43.90;32.70;;;;;;946146;149;26263;-70
2022/06/28 07:47:10;;;;;;;0.50;0.50;;;44.20;32.10;;;;;;963843;145;26303;-70
2022/06/28 07:52:36;;;;;;;0.47;0.47;;;44.60;31.60;;;;;;963792;145;26480;-72
2022/06/28 07:55:05;;;;;;;0.40;0.40;;;44.90;31.10;;;;;;943455;149;26186;-70
2022/06/28 07:57:32;;;;;;;1.27;0.55;;;45.10;30.60;;;;;;964147;146;26220;-70
2022/06/28 07:59:58;;;;;;;0.78;0.68;;;45.30;30.10;;;;;;943818;149;26161;-72
2022/06/28 08:02:25;;;;;;;0.50;0.50;;;45.40;29.70;;;;;;964040;145;26251;-73
2022/06/28 08:04:51;;;;;;;1.40;0.60;;;45.60;29.50;;;;;;967173;146;26353;-70
2022/06/28 08:07:18;;;;;;;0.72;0.60;;;45.70;29.40;;;;;;964270;145;26235;-70
2022/06/28 08:09:44;;;;;;;1.02;0.40;;;45.80;29.20;;;;;;967847;145;26308;-70
2022/06/28 08:12:11;;;;;;;1.32;0.80;;;45.90;28.70;;;;;;964656;145;26244;-70
2022/06/28 08:14:38;;;;;;;0.42;0.42;;;45.90;28.00;;;;;;943908;152;26244;-70
2022/06/28 08:17:04;;;;;;;0.70;0.70;;;45.90;28.10;;;;;;963461;145;26270;-70
2022/06/28 08:19:31;;;;;;;0.55;0.55;;;45.90;28.10;;;;;;944126;149;26209;-70
2022/06/28 08:21:57;;;;;;;0.60;0.60;;;45.90;28.20;;;;;;964697;145;26663;-72
2022/06/28 08:24:24;;;;;;;0.75;0.62;;;46.00;27.80;;;;;;967990;145;26336;-70
2022/06/28 08:26:52;;;;;;;0.78;0.70;;;46.20;27.80;;;;;;964205;145;26235;-70
2022/06/28 08:29:17;;;;;;;0.72;0.70;;;46.20;27.60;;;;;;963802;146;26221;-71
2022/06/28 08:31:44;;;;;;;0.68;0.68;;;46.40;27.50;;;;;;963599;145;26312;-70
2022/06/28 08:34:10;;;;;;;1.80;0.80;;;46.40;27.20;;;;;;964193;146;26270;-70
2022/06/28 08:36:37;;;;;;;0.88;0.70;;;46.50;27.10;;;;;;943731;149;26338;-73
2022/06/28 08:39:03;;;;;;;0.60;0.60;;;46.50;26.70;;;;;;964276;146;26232;-70
2022/06/28 08:41:30;;;;;;;0.80;0.70;;;46.50;26.50;;;;;;947574;148;26207;-71
2022/06/28 08:43:57;;;;;;;1.10;0.50;;;46.40;26.50;;;;;;963940;146;26343;-70
2022/06/28 08:46:26;;;;;;;0.37;0.37;;;46.30;26.30;;;;;;967285;145;26263;-70
2022/06/28 08:48:52;;;;;;;1.37;0.65;;;46.30;26.10;;;;;;963979;146;26259;-71
2022/06/28 08:51:19;;;;;;;1.15;0.80;;;46.20;26.10;;;;;;963720;146;26244;-71
2022/06/28 08:53:46;;;;;;;0.80;0.57;;;46.20;26.00;;;;;;944174;149;26249;-71
2022/06/28 08:56:12;;;;;;;1.05;0.50;;;46.20;25.80;;;;;;964127;145;26348;-71
2022/06/28 08:58:39;;;;;;;1.00;0.68;;;46.20;25.80;;;;;;944051;149;26284;-70
2022/06/28 09:01:05;;;;;;;1.37;0.80;;;46.20;25.60;;;;;;963164;145;26187;-73
2022/06/28 09:03:32;;;;;;;1.15;0.60;;;46.20;25.50;;;;;;943975;149;26233;-70
2022/06/28 09:05:58;;;;;;;0.85;0.47;;;46.20;25.10;;;;;;963721;146;26211;-70
2022/06/28 09:08:25;;;;;;;0.90;0.57;;;46.10;24.80;;;;;;944420;149;26358;-72
2022/06/28 09:10:52;;;;;;;1.02;0.75;;;46.00;25.00;;;;;;963800;146;26628;-70
2022/06/28 09:13:19;;;;;;;0.65;0.50;;;45.80;24.90;;;;;;944857;149;26240;-70
2022/06/28 09:15:51;;;;;;;1.02;0.60;;;45.60;24.90;;;;;;963892;145;26616;-73
2022/06/28 09:18:17;;;;;;;0.78;0.53;;;45.40;24.90;;;;;;933990;149;26732;-70
2022/06/28 09:20:44;;;;;;;1.87;0.70;;;45.30;25.10;;;;;;942555;149;26193;-70
2022/06/28 09:23:29;;;;;;;0.55;0.55;;;45.20;24.70;;;;;;942814;149;26265;-71
2022/06/28 09:25:56;;;;;;;0.85;0.47;;;45.10;24.40;;;;;;951271;147;26655;-70
2022/06/28 09:28:26;;;;;;;0.68;0.55;;;44.90;24.50;;;;;;951018;147;26240;-72
2022/06/28 09:30:51;;;;;;;0.60;0.60;;;44.70;24.30;;;;;;950973;147;26273;-71
2022/06/28 09:33:27;;;;;;;1.75;0.40;;;44.50;24.40;;;;;;951920;147;26295;-70
2022/06/28 09:35:53;;;;;;;0.62;0.42;;;44.40;24.50;;;;;;951550;147;26229;-70
2022/06/28 09:38:30;;;;;;;1.52;0.30;;;44.20;24.60;;;;;;951664;147;26318;-71
2022/06/28 09:40:55;;;;;;;0.42;0.42;;;44.10;24.80;;;;;;949172;147;26264;-70
2022/06/28 09:43:22;;;;;;;1.90;0.50;;;44.00;24.50;;;;;;951462;147;26299;-70
2022/06/28 09:45:50;;;;;;;1.40;0.78;;;43.90;24.70;;;;;;951229;147;26236;-71
2022/06/28 09:48:15;;;;;;;0.88;0.50;;;43.80;24.50;;;;;;951407;147;26257;-70
2022/06/28 09:50:41;;;;;;;1.40;0.80;;;43.80;24.60;;;;;;951654;147;28053;-71
2022/06/28 09:53:08;;;;;;;0.40;0.40;;;43.80;24.70;;;;;;951251;147;26221;-70
2022/06/28 09:55:35;;;;;;;0.40;0.40;;;43.70;24.30;;;;;;949920;146;26229;-70
2022/06/28 09:58:01;;;;;;;0.45;0.40;;;43.50;24.20;;;;;;951436;147;26226;-70
2022/06/28 10:00:28;;;;;;;1.15;0.65;;;43.30;24.20;;;;;;928348;150;27743;-72
2022/06/28 10:02:54;;;;;;;0.82;0.50;;;43.00;24.50;;;;;;933801;150;27519;-69
2022/06/28 10:05:21;;;;;;;0.60;0.60;;;42.60;23.80;;;;;;933900;150;26813;-70
2022/06/28 10:07:48;;;;;;;0.40;0.40;;;42.20;23.80;;;;;;950856;147;26215;-69
2022/06/28 10:10:14;;;;;;;0.28;0.28;;;41.70;23.70;;;;;;927094;150;26224;-70
2022/06/28 10:15:26;;;;;;;0.85;0.45;;;40.50;24.00;;;;;;942940;149;26296;-69
2022/06/28 10:17:55;;;;;;;0.53;0.50;;;39.90;24.60;;;;;;941161;149;26309;-70
2022/06/28 10:20:24;;;;;;;0.82;0.60;;;39.40;24.50;;;;;;931541;151;26261;-72
2022/06/28 10:22:51;;;;;;;0.50;0.50;;;38.80;24.80;;;;;;931674;151;27386;-72
2022/06/28 10:25:18;;;;;;;0.55;0.55;;;38.40;25.10;;;;;;931907;151;26374;-72
2022/06/28 10:27:44;;;;;;;1.12;0.70;;;37.90;25.00;;;;;;931321;151;27395;-72
2022/06/28 10:30:17;;;;;;;0.98;0.70;;;37.50;25.30;;;;;;931255;151;27461;-72
2022/06/28 10:32:55;;;;;;;0.50;0.30;;;37.10;25.50;;;;;;932047;151;27363;-73
2022/06/28 10:35:36;;;;;;;1.35;0.70;;;36.70;25.20;;;;;;931988;151;27459;-72
2022/06/28 10:38:09;;;;;;;1.07;0.40;;;36.30;25.30;;;;;;918644;151;27361;-70
2022/06/28 10:40:50;;;;;;;2.85;0.80;;;35.90;25.30;;;;;;937119;149;27530;-70
2022/06/28 10:43:26;;;;;;;0.93;0.70;;;35.50;25.40;;;;;;937041;149;27331;-70
2022/06/28 10:46:04;;;;;;;0.40;0.40;;;35.10;25.60;;;;;;936482;149;27279;-70
2022/06/28 10:48:31;;;;;;;0.40;0.40;;;34.70;25.70;;;;;;917964;152;27410;-70
2022/06/28 10:51:00;;;;;;;1.80;0.70;;;34.30;25.90;;;;;;939066;148;27353;-71
2022/06/28 10:53:27;;;;;;;0.60;0.60;;;34.00;26.10;;;;;;937136;149;27915;-69
2022/06/28 10:56:12;;;;;;;0.95;0.72;;;33.70;26.50;;;;;;936885;149;27350;-70
2022/06/28 10:58:56;;;;;;;1.07;0.55;;;33.40;26.60;;;;;;936569;149;27392;-72
2022/06/28 11:01:44;;;;;;;0.80;0.80;;;33.20;27.10;;;;;;935795;149;27335;-73
2022/06/28 11:04:19;;;;;;;0.82;0.75;;;32.90;27.10;;;;;;936410;149;27346;-72
2022/06/28 11:06:46;;;;;;;1.07;0.55;;;32.70;27.20;;;;;;935941;149;27369;-70
2022/06/28 11:09:15;;;;;;;1.10;0.70;;;32.50;27.20;;;;;;937305;149;27362;-71
2022/06/28 11:12:07;;;;;;;0.85;0.85;;;32.30;27.20;;;;;;936164;149;27443;-72
2022/06/28 11:14:35;;;;;;;0.50;0.50;;;32.10;27.30;;;;;;937502;149;27451;-72
2022/06/28 11:17:00;;;;;;;1.15;0.60;;;31.90;27.40;;;;;;936784;149;27454;-74
2022/06/28 11:19:26;;;;;;;0.50;0.50;;;31.70;27.60;;;;;;942394;149;27384;-71
2022/06/28 11:21:56;;;;;;;1.07;0.78;;;31.50;27.70;;;;;;946422;149;27340;-72
2022/06/28 11:24:23;;;;;;;0.60;0.50;;;31.30;27.80;;;;;;946673;149;27436;-71
2022/06/28 11:29:34;;;;;;;0.47;0.47;;;31.00;28.10;;;;;;947152;148;27412;-74
2022/06/28 11:32:01;;;;;;;0.53;0.53;;;30.90;28.30;;;;;;947384;148;27359;-72
2022/06/28 11:34:27;;;;;;;1.35;0.60;;;30.70;28.20;;;;;;947478;148;27797;-71
2022/06/28 11:36:54;;;;;;;1.12;0.57;;;30.60;28.20;;;;;;947420;149;27328;-72
2022/06/28 11:39:21;;;;;;;0.40;0.40;;;30.50;28.50;;;;;;946848;148;27324;-71
2022/06/28 11:41:47;;;;;;;0.40;0.40;;;30.30;28.50;;;;;;946378;149;27421;-71
2022/06/28 11:44:14;;;;;;;0.60;0.47;;;30.20;28.70;;;;;;945968;149;27347;-72
2022/06/28 11:46:40;;;;;;;1.12;0.70;;;30.10;28.80;;;;;;946492;148;27739;-71
2022/06/28 11:49:07;;;;;;;0.78;0.78;;;30.00;29.10;;;;;;947555;149;27410;-72
2022/06/28 11:51:33;;;;;;;0.75;0.50;;;30.00;29.40;;;;;;947717;149;27349;-74
2022/06/28 11:54:00;;;;;;;0.65;0.65;;;30.00;29.60;;;;;;947746;148;27372;-71
2022/06/28 11:56:27;;;;;;;0.75;0.42;;;29.90;29.40;;;;;;946410;148;28442;-71
2022/06/28 11:58:53;;;;;;;0.98;0.62;;;29.90;29.50;;;;;;944552;148;27433;-72
2022/06/28 12:01:21;;;;;;;0.55;0.50;;;29.80;29.40;;;;;;947387;148;27314;-71
2022/06/28 12:03:46;;;;;;;0.47;0.47;;;29.80;29.60;;;;;;947262;148;27402;-73
2022/06/28 12:06:19;;;;;;;0.40;0.40;;;29.80;29.70;;;;;;947806;148;27503;-72
2022/06/28 12:08:49;;;;;;;0.62;0.57;;;29.70;30.20;;;;;;947442;149;27387;-72
2022/06/28 12:11:27;;;;;;;0.62;0.62;;;29.70;30.00;;;;;;948025;148;27321;-72
2022/06/28 12:13:59;;;;;;;1.05;0.50;;;29.70;30.20;;;;;;947498;148;27367;-71
2022/06/28 12:16:31;;;;;;;1.55;0.60;;;29.60;30.20;;;;;;957999;146;27307;-71
2022/06/28 12:18:59;;;;;;;1.00;0.90;;;29.60;30.50;;;;;;963436;146;27273;-71
2022/06/28 12:21:25;;;;;;;0.42;0.42;;;29.60;30.70;;;;;;963112;146;27335;-72
2022/06/28 12:23:51;;;;;;;0.50;0.50;;;29.60;30.70;;;;;;963635;146;27435;-71
2022/06/28 12:26:18;;;;;;;1.42;0.70;;;29.60;30.90;;;;;;962964;146;27355;-70
2022/06/28 12:28:44;;;;;;;1.30;0.62;;;29.60;30.80;;;;;;963597;146;27320;-70
2022/06/28 12:31:11;;;;;;;0.42;0.42;;;29.60;30.80;;;;;;963578;146;27381;-71
2022/06/28 12:33:37;;;;;;;1.25;0.70;;;29.50;30.00;;;;;;963868;146;27821;-71
2022/06/28 12:36:04;;;;;;;0.55;0.55;;;29.50;30.90;;;;;;964636;146;27327;-71
2022/06/28 12:38:31;;;;;;;0.72;0.60;;;29.50;31.20;;;;;;968179;146;27221;-72
2022/06/28 12:40:57;;;;;;;0.68;0.60;;;29.40;31.00;;;;;;949455;148;27416;-70
2022/06/28 12:43:24;;;;;;;0.55;0.42;;;29.40;31.30;;;;;;962005;146;27322;-71
2022/06/28 12:45:50;;;;;;;3.70;0.62;;;29.40;31.30;;;;;;958080;146;27377;-72
2022/06/28 12:48:17;;;;;;;1.27;0.62;;;29.40;31.80;;;;;;945940;149;27358;-71
2022/06/28 12:50:44;;;;;;;0.80;0.70;;;29.30;31.60;;;;;;961198;146;27348;-73
2022/06/28 12:53:10;;;;;;;2.27;0.70;;;29.30;31.60;;;;;;943350;149;27300;-73
2022/06/28 12:55:37;;;;;;;0.50;0.50;;;29.30;31.70;;;;;;941857;149;27379;-71
2022/06/28 12:58:03;;;;;;;0.68;0.55;;;29.40;31.90;;;;;;966936;146;27294;-72
2022/06/28 13:00:30;;;;;;;0.65;0.65;;;29.40;32.10;;;;;;963507;148;27448;-71
2022/06/28 13:02:57;;;;;;;0.72;0.72;;;29.40;32.10;;;;;;966720;145;27434;-74
2022/06/28 13:05:24;;;;;;;0.88;0.85;;;29.30;31.90;;;;;;963447;146;27948;-71